Time;durP1;ratioP1;P1;durP2;ratioP2;P2;SDS_P1;SDS_P2;PMS_P1;PMS_P2;Temp;Humidity;BMP_temperature;BMP_pressure;BME280_temperature;BME280_humidity;BME280_pressure;Samples;Min_cycle;Max_cycle;Signal;HPM_P1;HPM_P2
2022/08/05 00:00:46;;;;;;;;;3.00;3.00;;;;;25.14;56.68;101232.84;5096652;27;46244;-72
2022/08/05 00:03:11;;;;;;;;;3.33;3.33;;;;;25.08;55.49;101225.25;5096819;27;51979;-72
2022/08/05 00:05:37;;;;;;;;;4.00;2.00;;;;;25.02;55.78;101207.63;5097433;27;45456;-73
2022/08/05 00:08:02;;;;;;;;;1.00;1.00;;;;;24.97;56.19;101199.88;5097046;27;45355;-72
2022/08/05 00:10:27;;;;;;;;;1.00;1.00;;;;;24.77;55.54;101147.31;5096528;27;47161;-72
2022/08/05 00:12:53;;;;;;;;;2.33;2.33;;;;;24.87;55.68;101214.56;5097411;27;45818;-72
2022/08/05 00:15:18;;;;;;;;;1.67;1.67;;;;;24.82;56.10;101255.91;5097275;27;45441;-72
2022/08/05 00:17:44;;;;;;;;;3.00;2.67;;;;;24.61;54.19;101275.19;5097360;27;45587;-72
2022/08/05 00:20:09;;;;;;;;;1.00;1.00;;;;;24.69;54.59;101313.47;5097047;27;45413;-72
2022/08/05 00:22:35;;;;;;;;;1.00;1.00;;;;;24.57;55.09;101339.16;5096162;27;45378;-72
2022/08/05 00:25:01;;;;;;;;;4.00;2.00;;;;;24.48;55.44;101370.84;5096936;27;45542;-72
2022/08/05 00:27:29;;;;;;;;;0.33;0.33;;;;;24.43;54.98;101354.91;5078951;27;45651;-72
2022/08/05 00:29:55;;;;;;;;;2.00;2.00;;;;;24.49;55.08;101288.13;5096312;27;45432;-72
2022/08/05 00:32:20;;;;;;;;;4.33;2.33;;;;;24.48;54.61;101282.78;5096692;27;45384;-72
2022/08/05 00:34:46;;;;;;;;;2.00;2.00;;;;;24.43;55.50;101281.31;5096701;27;45309;-72
2022/08/05 00:37:11;;;;;;;;;2.00;2.00;;;;;24.43;55.35;101250.50;5097029;27;45739;-72
2022/08/05 00:39:36;;;;;;;;;2.00;2.00;;;;;24.39;55.94;101293.50;5096547;27;46552;-72
2022/08/05 00:42:02;;;;;;;;;2.00;2.00;;;;;24.36;55.06;101396.50;5096495;27;45478;-72
2022/08/05 00:44:28;;;;;;;;;2.00;2.00;;;;;24.31;55.10;101385.16;5078443;27;45545;-72
2022/08/05 00:46:53;;;;;;;;;3.00;2.00;;;;;24.27;54.52;101343.69;5096968;27;45356;-72
2022/08/05 00:49:18;;;;;;;;;3.00;2.00;;;;;24.24;55.38;101284.06;5096246;27;47315;-72
2022/08/05 00:51:45;;;;;;;;;2.00;1.67;;;;;24.26;56.21;101352.03;5078194;27;45672;-72
2022/08/05 00:54:11;;;;;;;;;4.00;2.00;;;;;24.25;56.19;101323.06;5096704;27;45704;-72
2022/08/05 00:56:37;;;;;;;;;2.67;1.67;;;;;24.22;57.08;101295.09;5096808;27;45400;-72
2022/08/05 00:59:02;;;;;;;;;1.33;1.33;;;;;24.20;56.98;101285.34;5096325;27;46089;-72
2022/08/05 01:01:27;;;;;;;;;2.00;2.00;;;;;24.17;57.40;101302.84;5096569;27;45801;-72
2022/08/05 01:03:53;;;;;;;;;2.67;2.67;;;;;24.15;57.22;101317.59;5078284;27;45480;-72
2022/08/05 01:06:18;;;;;;;;;2.00;2.00;;;;;24.12;57.10;101329.63;5096523;27;45453;-72
2022/08/05 01:08:43;;;;;;;;;1.67;1.33;;;;;24.09;55.47;101297.25;5096089;27;46303;-72
2022/08/05 01:11:20;;;;;;;;;2.33;2.00;;;;;24.08;57.23;101314.56;5096066;27;45458;-72
2022/08/05 01:14:03;;;;;;;;;1.00;1.00;;;;;23.90;56.72;101295.31;5099837;27;45453;-72
2022/08/05 01:16:46;;;;;;;;;2.33;1.67;;;;;24.01;58.42;101313.41;5100058;27;45379;-72
2022/08/05 01:19:34;;;;;;;;;3.00;3.00;;;;;24.00;58.30;101312.56;5099608;27;45538;-72
2022/08/05 01:22:18;;;;;;;;;1.50;1.50;;;;;23.97;58.17;101325.59;5099648;27;45459;-72
2022/08/05 01:24:48;;;;;;;;;2.00;2.00;;;;;23.89;58.60;101320.84;5099761;27;45459;-72
2022/08/05 01:28:02;;;;;;;;;2.00;2.00;;;;;23.93;57.47;101299.66;5081618;27;45774;-71
2022/08/05 01:30:31;;;;;;;;;1.67;1.67;;;;;23.94;57.57;101306.81;5035937;28;45539;-72
2022/08/05 01:32:59;;;;;;;;;2.00;2.00;;;;;23.90;57.07;101284.44;5035910;28;45485;-72
2022/08/05 01:35:30;;;;;;;;;4.67;3.33;;;;;23.88;57.99;101272.84;5035805;28;45523;-72
2022/08/05 01:37:58;;;;;;;;;2.00;2.00;;;;;23.83;57.86;101252.47;5036494;28;45717;-72
2022/08/05 01:40:28;;;;;;;;;2.00;2.00;;;;;23.84;57.76;101246.06;5035802;28;46341;-72
2022/08/05 01:42:55;;;;;;;;;3.00;3.00;;;;;23.82;56.52;101229.00;5036138;28;45513;-72
2022/08/05 01:45:23;;;;;;;;;3.33;3.33;;;;;23.80;57.56;101210.06;5035815;28;45563;-72
2022/08/05 01:47:50;;;;;;;;;1.00;0.67;;;;;23.68;58.19;101217.47;5036177;28;45427;-72
2022/08/05 01:50:25;;;;;;;;;1.67;1.67;;;;;23.70;57.62;101245.41;5035737;28;46447;-72
2022/08/05 01:52:55;;;;;;;;;3.00;3.00;;;;;23.76;57.64;101263.06;5035786;28;45502;-72
2022/08/05 01:55:23;;;;;;;;;4.00;1.00;;;;;23.75;57.91;101275.81;5036138;28;45513;-72
2022/08/05 01:57:51;;;;;;;;;2.33;2.00;;;;;23.67;56.98;101291.97;5036070;28;45538;-72
2022/08/05 02:00:17;;;;;;;;;4.00;2.00;;;;;23.73;57.18;101277.78;5035745;28;45452;-72
2022/08/05 02:02:51;;;;;;;;;3.33;2.00;;;;;23.73;57.39;101236.09;5035514;28;45450;-72
2022/08/05 02:05:18;;;;;;;;;4.00;2.00;;;;;23.68;57.58;101216.63;5035871;28;45540;-72
2022/08/05 02:07:44;;;;;;;;;3.00;2.00;;;;;23.73;57.07;101215.19;5072665;28;45547;-72
2022/08/05 02:10:10;;;;;;;;;2.00;2.00;;;;;23.72;57.22;101218.06;5078264;28;47100;-72
2022/08/05 02:12:52;;;;;;;;;4.00;2.00;;;;;23.72;57.19;101246.13;5078371;28;45360;-72
2022/08/05 02:15:24;;;;;;;;;2.00;2.00;;;;;23.71;57.10;101274.34;5078253;28;45422;-72
2022/08/05 02:18:01;;;;;;;;;3.33;2.00;;;;;23.72;57.25;101257.03;5078381;28;45483;-72
2022/08/05 02:20:32;;;;;;;;;2.67;2.67;;;;;23.72;56.97;101257.03;5078127;28;45430;-72
2022/08/05 02:23:01;;;;;;;;;2.33;2.33;;;;;23.68;55.87;101252.00;5077844;28;45427;-72
2022/08/05 02:25:32;;;;;;;;;2.67;2.67;;;;;23.66;56.39;101260.28;5078358;28;45450;-72
2022/08/05 02:27:59;;;;;;;;;5.00;2.00;;;;;23.68;56.31;101279.22;5090583;27;45482;-72
2022/08/05 02:30:29;;;;;;;;;1.67;1.67;;;;;23.63;56.21;101312.28;5098571;27;45496;-72
2022/08/05 02:32:58;;;;;;;;;1.67;1.67;;;;;23.63;56.58;101303.28;5080030;27;45420;-72
2022/08/05 02:35:25;;;;;;;;;2.00;2.00;;;;;23.59;55.11;101294.50;5098581;27;45422;-72
2022/08/05 02:37:54;;;;;;;;;2.00;2.00;;;;;23.58;54.54;101299.09;5098743;27;45485;-72
2022/08/05 02:40:23;;;;;;;;;2.00;2.00;;;;;23.53;54.96;101309.53;5098132;27;46418;-72
2022/08/05 02:42:50;;;;;;;;;2.00;2.00;;;;;23.39;55.34;101304.47;5098488;27;45526;-72
2022/08/05 02:45:17;;;;;;;;;2.67;1.33;;;;;23.52;55.88;101318.69;5098448;27;45488;-72
2022/08/05 02:47:44;;;;;;;;;1.33;1.33;;;;;23.50;54.43;101284.44;5098540;27;45408;-72
2022/08/05 02:50:12;;;;;;;;;2.00;2.00;;;;;23.50;54.38;101271.69;5098183;27;47466;-72
2022/08/05 02:52:40;;;;;;;;;3.00;3.00;;;;;23.49;55.35;101256.38;5098051;27;45493;-72
2022/08/05 02:55:07;;;;;;;;;2.00;2.00;;;;;23.49;55.23;101247.38;5079844;27;45441;-72
2022/08/05 02:57:33;;;;;;;;;2.00;2.00;;;;;23.42;55.50;101203.53;5098545;27;45517;-72
2022/08/05 02:59:59;;;;;;;;;2.00;2.00;;;;;23.52;55.75;101222.59;5098037;27;45986;-72
2022/08/05 03:02:30;;;;;;;;;2.00;2.00;;;;;23.49;55.94;101234.63;5097788;27;45599;-72
2022/08/05 03:04:57;;;;;;;;;3.00;1.00;;;;;23.47;56.45;101250.22;5098082;27;45453;-72
2022/08/05 03:07:24;;;;;;;;;1.67;1.67;;;;;23.46;55.68;101270.28;5098508;27;45446;-72
2022/08/05 03:09:50;;;;;;;;;3.33;2.00;;;;;23.45;55.68;101276.69;5097692;27;45464;-72
2022/08/05 03:12:32;;;;;;;;;3.00;2.00;;;;;23.42;55.81;101287.88;5097794;27;45367;-72
2022/08/05 03:14:58;;;;;;;;;2.00;2.00;;;;;23.44;55.07;101287.75;5097857;27;45482;-72
2022/08/05 03:17:23;;;;;;;;;1.00;1.00;;;;;23.34;55.43;101263.19;5098148;27;45534;-72
2022/08/05 03:19:48;;;;;;;;;2.00;2.00;;;;;23.42;55.73;101273.41;5079600;27;47005;-72
2022/08/05 03:22:14;;;;;;;;;1.67;1.67;;;;;23.41;55.71;101277.13;5097681;27;45418;-72
2022/08/05 03:24:41;;;;;;;;;2.00;2.00;;;;;23.36;56.07;101264.78;5098024;27;45402;-72
2022/08/05 03:27:07;;;;;;;;;3.33;1.67;;;;;23.28;55.80;101247.44;5097907;27;45469;-72
2022/08/05 03:29:33;;;;;;;;;3.00;3.00;;;;;23.38;55.30;101275.53;5097063;27;46119;-72
2022/08/05 03:31:58;;;;;;;;;3.00;3.00;;;;;23.20;55.55;101233.66;5097620;27;45418;-72
2022/08/05 03:34:26;;;;;;;;;3.67;2.00;;;;;23.37;54.98;101273.81;5078677;27;45393;-72
2022/08/05 03:36:51;;;;;;;;;1.00;1.00;;;;;23.20;55.88;101252.69;5098073;27;45442;-72
2022/08/05 03:39:16;;;;;;;;;2.67;2.67;;;;;23.20;55.06;101239.09;5097272;27;47239;-72
2022/08/05 03:41:42;;;;;;;;;2.67;2.00;;;;;23.35;55.90;101263.06;5062210;27;45533;-72
2022/08/05 03:44:07;;;;;;;;;3.67;3.00;;;;;23.36;55.55;101274.81;5079015;27;45435;-72
2022/08/05 03:46:33;;;;;;;;;2.00;2.00;;;;;23.36;55.78;101283.81;5097574;27;45447;-72
2022/08/05 03:48:58;;;;;;;;;3.00;2.00;;;;;23.35;55.62;101281.25;5097274;27;45488;-72
2022/08/05 03:51:35;;;;;;;;;2.00;2.00;;;;;23.29;54.90;101276.34;5097441;27;45616;-72
2022/08/05 03:54:18;;;;;;;;;5.00;3.67;;;;;23.28;54.81;101288.25;5097305;27;45396;-72
2022/08/05 03:56:46;;;;;;;;;1.00;1.00;;;;;23.28;55.22;101285.53;5097881;27;45410;-72
2022/08/05 03:59:16;;;;;;;;;1.00;1.00;;;;;23.28;55.01;101288.25;5078441;27;48513;-72
2022/08/05 04:01:45;;;;;;;;;2.33;2.33;;;;;23.26;54.68;101287.50;5096780;27;45482;-72
2022/08/05 04:04:13;;;;;;;;;4.00;2.33;;;;;23.15;55.01;101270.25;5097195;27;45422;-72
2022/08/05 04:06:40;;;;;;;;;4.00;2.33;;;;;23.24;55.52;101284.06;5097477;27;45513;-72
2022/08/05 04:09:07;;;;;;;;;1.00;1.00;;;;;23.21;54.60;101285.19;5096847;27;45482;-72
2022/08/05 04:11:35;;;;;;;;;3.67;3.67;;;;;23.10;55.06;101266.25;5096857;27;45430;-72
2022/08/05 04:14:01;;;;;;;;;1.00;1.00;;;;;23.19;55.22;101284.47;5096896;27;45440;-72
2022/08/05 04:16:27;;;;;;;;;3.00;2.00;;;;;23.20;55.22;101279.88;5097271;27;45598;-72
2022/08/05 04:18:53;;;;;;;;;2.33;2.33;;;;;23.18;55.01;101277.31;5097091;27;46107;-72
2022/08/05 04:21:18;;;;;;;;;3.00;2.00;;;;;23.17;55.36;101284.59;5096836;27;45513;-72
2022/08/05 04:23:44;;;;;;;;;2.00;2.00;;;;;23.06;54.98;101253.91;5096981;27;45372;-72
2022/08/05 04:26:09;;;;;;;;;1.67;1.67;;;;;23.18;55.17;101278.19;5079080;27;45447;-72
2022/08/05 04:28:35;;;;;;;;;3.00;3.00;;;;;23.18;54.17;101275.47;5096308;27;45461;-72
2022/08/05 04:31:01;;;;;;;;;4.67;3.00;;;;;23.11;54.35;101271.56;5096729;27;45437;-72
2022/08/05 04:33:27;;;;;;;;;2.33;2.33;;;;;23.16;54.58;101282.88;5096954;27;45402;-72
2022/08/05 04:35:53;;;;;;;;;2.33;2.00;;;;;23.16;54.41;101285.59;5097046;27;45362;-72
2022/08/05 04:38:18;;;;;;;;;2.00;2.00;;;;;23.14;54.82;101286.75;5096683;27;45445;-72
2022/08/05 04:40:43;;;;;;;;;4.00;2.33;;;;;23.13;54.82;101285.00;5096591;27;45405;-72
2022/08/05 04:43:09;;;;;;;;;2.00;2.00;;;;;23.11;54.63;101285.16;5096624;27;45396;-72
2022/08/05 04:45:35;;;;;;;;;4.00;3.00;;;;;23.09;54.97;101289.00;5108210;27;45444;-72
2022/08/05 04:48:08;;;;;;;;;1.00;1.00;;;;;23.05;54.28;101295.72;5120675;27;45453;-72
2022/08/05 04:50:39;;;;;;;;;2.00;2.00;;;;;23.08;54.51;101295.44;5120868;27;45444;-72
2022/08/05 04:53:04;;;;;;;;;2.33;2.33;;;;;23.12;54.78;101300.47;5120963;27;45540;-72
2022/08/05 04:55:29;;;;;;;;;1.00;1.00;;;;;23.12;54.26;101296.88;5120998;27;45825;-72
2022/08/05 04:57:55;;;;;;;;;3.00;3.00;;;;;23.10;54.65;101302.44;5120455;27;45920;-72
2022/08/05 05:00:20;;;;;;;;;2.00;2.00;;;;;23.11;54.58;101312.34;5120491;27;45391;-72
2022/08/05 05:02:45;;;;;;;;;4.00;1.00;;;;;23.12;54.55;101311.34;5120779;27;45504;-72
2022/08/05 05:05:11;;;;;;;;;2.67;2.67;;;;;23.08;54.68;101303.59;5121060;27;45485;-72
2022/08/05 05:07:36;;;;;;;;;2.33;2.33;;;;;23.11;54.05;101306.06;5120617;27;45409;-72
2022/08/05 05:10:04;;;;;;;;;2.00;2.00;;;;;23.14;54.39;101311.22;5101780;27;45442;-72
2022/08/05 05:12:30;;;;;;;;;2.33;2.33;;;;;23.15;54.75;101318.38;5120134;27;45512;-72
2022/08/05 05:14:56;;;;;;;;;3.00;2.00;;;;;23.16;54.80;101326.41;5120951;27;45425;-72
2022/08/05 05:17:21;;;;;;;;;3.33;3.00;;;;;23.14;54.27;101331.09;5120554;27;45575;-72
2022/08/05 05:19:46;;;;;;;;;1.00;1.00;;;;;23.15;54.33;101340.13;5120526;27;45545;-72
2022/08/05 05:22:12;;;;;;;;;4.00;2.67;;;;;23.07;54.52;101320.91;5120622;27;45492;-72
2022/08/05 05:24:37;;;;;;;;;3.00;2.00;;;;;23.18;54.32;101346.16;5120364;27;45527;-72
2022/08/05 05:27:02;;;;;;;;;3.33;3.00;;;;;23.23;54.33;101350.34;5115492;27;46164;-72
2022/08/05 05:29:28;;;;;;;;;3.00;3.00;;;;;23.23;54.34;101350.34;5081522;27;45569;-72
2022/08/05 05:31:54;;;;;;;;;2.00;1.33;;;;;23.13;54.05;101332.13;5099646;27;45501;-72
2022/08/05 05:34:19;;;;;;;;;3.00;3.00;;;;;23.15;53.62;101345.56;5099692;27;45553;-72
2022/08/05 05:36:45;;;;;;;;;3.67;2.00;;;;;23.22;53.52;101363.06;5099323;27;46042;-72
2022/08/05 05:39:10;;;;;;;;;2.67;1.00;;;;;23.08;54.01;101336.22;5081204;27;45772;-72
2022/08/05 05:41:35;;;;;;;;;2.00;2.00;;;;;23.20;53.41;101365.06;5099453;27;45453;-72
2022/08/05 05:44:00;;;;;;;;;2.00;2.00;;;;;23.18;53.77;101376.09;5098738;27;45520;-71
2022/08/05 05:46:26;;;;;;;;;3.33;2.67;;;;;23.16;54.08;101379.94;5080938;27;45544;-71
2022/08/05 05:48:51;;;;;;;;;4.00;4.00;;;;;23.14;53.31;101376.47;5078910;28;45573;-71
2022/08/05 05:51:22;;;;;;;;;3.67;2.00;;;;;23.09;53.87;101376.03;5078968;28;45516;-71
2022/08/05 05:53:48;;;;;;;;;7.33;3.00;;;;;22.96;54.23;101357.16;5079038;28;45511;-71
2022/08/05 05:56:13;;;;;;;;;4.67;3.00;;;;;23.04;53.96;101373.72;5078609;28;46071;-70
2022/08/05 05:58:39;;;;;;;;;4.00;4.00;;;;;22.90;54.49;101365.84;5077720;28;45392;-71
2022/08/05 06:01:04;;;;;;;;;3.00;3.00;;;;;23.00;54.53;101376.81;5078671;28;45388;-71
2022/08/05 06:03:29;;;;;;;;;2.67;2.67;;;;;22.99;54.66;101378.66;5078850;28;45475;-71
2022/08/05 06:05:55;;;;;;;;;4.00;3.00;;;;;22.93;54.40;101379.16;5078442;28;55713;-71
2022/08/05 06:08:20;;;;;;;;;3.67;3.67;;;;;22.96;54.53;101381.63;5043649;28;45418;-70
2022/08/05 06:10:45;;;;;;;;;4.33;4.33;;;;;22.99;54.76;101394.13;5059884;28;45438;-71
2022/08/05 06:13:11;;;;;;;;;4.00;4.00;;;;;23.00;54.27;101395.84;5078722;28;45430;-71
2022/08/05 06:15:36;;;;;;;;;6.67;6.00;;;;;23.02;54.31;101402.88;5078058;28;47084;-71
2022/08/05 06:18:01;;;;;;;;;4.00;4.00;;;;;23.00;54.01;101390.41;5060381;28;45478;-71
2022/08/05 06:20:27;;;;;;;;;5.00;3.33;;;;;23.04;54.65;101402.72;5078561;28;45434;-71
2022/08/05 06:22:52;;;;;;;;;3.67;3.00;;;;;23.05;54.69;101402.59;5060377;28;45516;-71
2022/08/05 06:25:17;;;;;;;;;3.00;3.00;;;;;23.08;54.56;101413.22;5077966;28;45399;-71
2022/08/05 06:27:43;;;;;;;;;3.33;3.33;;;;;23.09;54.01;101405.94;5087957;27;45506;-71
2022/08/05 06:30:14;;;;;;;;;4.67;4.00;;;;;23.14;53.91;101411.84;5098947;27;45391;-70
2022/08/05 06:32:40;;;;;;;;;4.00;2.00;;;;;23.17;53.96;101403.41;5098931;27;45469;-70
2022/08/05 06:35:06;;;;;;;;;3.00;2.00;;;;;23.19;53.76;101406.84;5098480;27;45445;-71
2022/08/05 06:37:31;;;;;;;;;3.67;3.67;;;;;23.19;53.59;101404.13;5098271;27;45426;-71
2022/08/05 06:39:56;;;;;;;;;4.33;3.00;;;;;23.21;53.48;101409.47;5098558;27;45390;-70
2022/08/05 06:42:22;;;;;;;;;3.67;3.67;;;;;23.23;54.04;101404.75;5098836;27;45475;-71
2022/08/05 06:44:47;;;;;;;;;5.00;5.00;;;;;23.24;53.71;101410.03;5098383;27;46264;-71
2022/08/05 06:47:12;;;;;;;;;4.67;3.00;;;;;23.31;53.80;101411.22;5098378;27;45415;-71
2022/08/05 06:49:37;;;;;;;;;4.33;4.33;;;;;23.32;53.57;101403.91;5098389;27;45469;-71
2022/08/05 06:52:03;;;;;;;;;4.00;4.00;;;;;23.36;54.01;101410.81;5098132;27;45408;-71
2022/08/05 06:54:28;;;;;;;;;3.67;3.67;;;;;23.40;53.62;101417.72;5080019;27;47205;-70
2022/08/05 06:56:54;;;;;;;;;2.67;2.67;;;;;23.39;53.22;101413.31;5098439;27;45369;-71
2022/08/05 06:59:19;;;;;;;;;2.67;2.67;;;;;23.45;53.90;101409.16;5098328;27;45568;-71
2022/08/05 07:01:44;;;;;;;;;6.00;4.33;;;;;23.52;53.59;101416.66;5080220;27;45402;-71
2022/08/05 07:04:10;;;;;;;;;3.33;3.33;;;;;23.58;53.17;101423.44;5079527;27;46340;-71
2022/08/05 07:06:35;;;;;;;;;5.67;5.00;;;;;23.63;53.40;101423.03;5079269;27;45586;-70
2022/08/05 07:09:01;;;;;;;;;6.33;5.00;;;;;23.68;53.11;101416.16;5079311;27;45423;-71
2022/08/05 07:11:29;;;;;;;;;3.33;3.33;;;;;23.74;52.91;101423.84;5097621;27;45510;-70
2022/08/05 07:16:48;;;;;;;;;2.00;2.00;;;;;23.66;52.08;101390.94;5097971;27;45571;-70
2022/08/05 07:19:18;;;;;;;;;4.67;3.00;;;;;23.92;52.65;101429.47;5098100;27;45495;-71
2022/08/05 07:21:44;;;;;;;;;3.00;3.00;;;;;23.95;52.44;101429.22;5097995;27;45467;-71
2022/08/05 07:24:10;;;;;;;;;2.00;2.00;;;;;23.99;52.39;101433.38;5079413;27;47494;-71
2022/08/05 07:26:36;;;;;;;;;4.67;2.67;;;;;24.04;52.27;101441.13;5079241;27;45714;-71
2022/08/05 07:29:02;;;;;;;;;4.67;3.33;;;;;24.09;52.11;101438.00;5097602;27;45393;-71
2022/08/05 07:31:27;;;;;;;;;4.00;4.00;;;;;24.13;51.74;101447.63;5097959;27;45489;-70
2022/08/05 07:33:52;;;;;;;;;5.33;3.00;;;;;24.19;51.56;101447.94;5097508;27;45492;-71
2022/08/05 07:36:18;;;;;;;;;3.00;3.00;;;;;24.27;51.24;101441.78;5097372;27;45550;-71
2022/08/05 07:38:43;;;;;;;;;4.00;4.00;;;;;24.30;51.46;101443.34;5097775;27;45377;-71
2022/08/05 07:41:19;;;;;;;;;3.00;3.00;;;;;24.28;51.26;101450.81;5110906;27;45461;-71
2022/08/05 07:43:44;;;;;;;;;4.00;4.00;;;;;24.42;51.17;101451.28;5109588;27;45581;-71
2022/08/05 07:46:10;;;;;;;;;4.00;3.00;;;;;24.50;51.31;101447.91;5093918;27;45765;-71
2022/08/05 07:48:35;;;;;;;;;4.00;3.00;;;;;24.58;50.84;101456.25;5093869;27;45386;-71
2022/08/05 07:51:01;;;;;;;;;8.00;5.00;;;;;24.59;51.48;101449.78;5091467;27;46019;-71
2022/08/05 07:53:26;;;;;;;;;5.00;5.00;;;;;24.70;50.95;101465.16;5093552;27;45531;-71
2022/08/05 07:55:53;;;;;;;;;7.00;5.33;;;;;24.75;50.49;101468.31;5109475;27;45514;-71
2022/08/05 07:58:18;;;;;;;;;7.33;5.00;;;;;24.84;51.05;101472.03;5093978;27;45488;-71
2022/08/05 08:00:44;;;;;;;;;5.00;4.00;;;;;24.91;50.36;101475.06;5093253;27;45700;-72
2022/08/05 08:03:11;;;;;;;;;3.00;3.00;;;;;24.97;49.95;101482.69;5092049;27;45522;-71
2022/08/05 08:05:37;;;;;;;;;4.00;4.00;;;;;25.01;49.85;101484.97;5091988;27;45490;-71
2022/08/05 08:08:02;;;;;;;;;4.00;4.00;;;;;25.05;50.17;101485.53;5093790;27;45392;-71
2022/08/05 08:10:29;;;;;;;;;6.67;4.33;;;;;25.02;49.47;101478.50;5092790;27;46981;-71
2022/08/05 08:12:54;;;;;;;;;5.00;4.00;;;;;25.12;49.40;101488.56;5093234;27;45492;-71
2022/08/05 08:15:19;;;;;;;;;3.33;3.33;;;;;25.15;49.71;101491.88;5093421;27;45396;-71
2022/08/05 08:17:46;;;;;;;;;4.33;4.00;;;;;25.24;49.44;101490.19;5093466;27;45372;-71
2022/08/05 08:20:12;;;;;;;;;5.00;3.67;;;;;25.18;49.40;101488.03;5092775;27;45424;-71
2022/08/05 08:22:37;;;;;;;;;8.33;6.33;;;;;25.33;49.00;101497.47;5093013;27;45463;-71
2022/08/05 08:25:04;;;;;;;;;6.00;3.00;;;;;25.37;48.73;101506.25;5092972;27;45525;-71
2022/08/05 08:27:30;;;;;;;;;5.00;4.33;;;;;25.31;49.22;101488.59;5093363;27;45458;-71
2022/08/05 08:29:55;;;;;;;;;4.00;3.00;;;;;25.49;48.83;101508.66;5092674;27;46280;-71
2022/08/05 08:32:21;;;;;;;;;4.00;4.00;;;;;25.58;48.30;101506.94;5092995;27;45654;-71
2022/08/05 08:34:46;;;;;;;;;3.00;2.67;;;;;25.63;48.32;101507.34;5093048;27;45601;-71
2022/08/05 08:37:11;;;;;;;;;3.33;3.00;;;;;25.73;48.00;101514.66;5093129;27;45368;-71
2022/08/05 08:39:37;;;;;;;;;2.67;2.67;;;;;25.80;47.28;101515.78;5092757;27;45444;-71
2022/08/05 08:42:03;;;;;;;;;5.00;3.00;;;;;25.82;47.91;101502.84;5092800;27;45439;-71
2022/08/05 08:44:30;;;;;;;;;2.00;2.00;;;;;25.97;47.49;101514.22;5090980;27;45525;-71
2022/08/05 08:46:56;;;;;;;;;3.00;3.00;;;;;26.07;47.21;101510.41;5072717;28;45656;-71
2022/08/05 08:49:23;;;;;;;;;5.00;3.67;;;;;26.24;46.34;101514.22;5071732;28;46212;-71
2022/08/05 08:52:00;;;;;;;;;3.33;3.00;;;;;26.51;45.91;101515.25;5063193;28;45541;-71
2022/08/05 08:54:26;;;;;;;;;2.00;2.00;;;;;28.51;42.68;101519.34;5059090;28;45418;-71
2022/08/05 08:56:51;;;;;;;;;2.00;2.00;;;;;29.98;38.32;101513.16;5059162;28;45517;-71
2022/08/05 08:59:18;;;;;;;;;5.00;2.33;;;;;32.68;34.92;101510.16;5058540;28;45674;-71
2022/08/05 09:01:44;;;;;;;;;5.00;3.00;;;;;36.22;28.97;101510.81;5040523;28;45525;-71
2022/08/05 09:04:11;;;;;;;;;5.33;3.00;;;;;38.69;25.84;101521.72;5040225;28;45513;-71
2022/08/05 09:06:36;;;;;;;;;3.33;3.33;;;;;40.50;23.38;101526.78;5058723;28;45441;-71
2022/08/05 09:09:02;;;;;;;;;3.67;3.00;;;;;41.52;21.95;101532.63;5056724;28;57769;-71
2022/08/05 09:11:29;;;;;;;;;3.00;3.00;;;;;42.69;20.94;101532.63;5058374;28;45463;-71
2022/08/05 09:13:55;;;;;;;;;4.00;4.00;;;;;43.97;19.83;101543.03;5058183;28;45442;-71
2022/08/05 09:16:20;;;;;;;;;2.67;2.67;;;;;44.96;18.71;101543.25;5058828;28;45459;-72
2022/08/05 09:18:47;;;;;;;;;3.00;3.00;;;;;45.61;17.96;101521.03;5058242;28;45438;-71
2022/08/05 09:21:13;;;;;;;;;3.33;3.33;;;;;46.42;17.53;101530.41;5058199;28;45429;-71
2022/08/05 09:23:38;;;;;;;;;3.67;2.00;;;;;47.21;16.26;101543.78;5058377;28;45456;-72
2022/08/05 09:26:11;;;;;;;;;3.00;3.00;;;;;47.76;16.44;101542.41;5040455;28;45430;-72
2022/08/05 09:28:38;;;;;;;;;2.00;2.00;;;;;48.27;15.58;101554.34;5075437;28;45466;-72
2022/08/05 09:31:08;;;;;;;;;4.33;3.00;;;;;48.76;15.67;101553.13;5078297;28;45526;-72
2022/08/05 09:33:51;;;;;;;;;1.67;1.67;;;;;48.25;16.03;101554.63;5077968;28;45481;-72
2022/08/05 09:36:17;;;;;;;;;3.00;2.00;;;;;48.96;14.55;101558.53;5078272;28;45797;-71
2022/08/05 09:38:57;;;;;;;;;3.33;2.67;;;;;49.61;14.25;101554.84;5078374;28;45948;-72
2022/08/05 09:41:23;;;;;;;;;3.00;3.00;;;;;50.04;14.00;101550.97;5078133;28;45436;-71
2022/08/05 09:43:48;;;;;;;;;2.33;2.33;;;;;50.21;13.74;101544.66;5078177;28;45623;-72
2022/08/05 09:46:25;;;;;;;;;2.67;2.67;;;;;50.55;13.50;101555.56;5061842;28;45607;-72
2022/08/05 09:48:52;;;;;;;;;3.33;2.67;;;;;50.72;13.15;101557.78;5057844;28;46320;-72
2022/08/05 09:51:36;;;;;;;;;2.67;2.67;;;;;50.98;13.25;101563.66;5057745;28;45432;-71
2022/08/05 09:54:06;;;;;;;;;4.00;4.00;;;;;51.02;13.01;101561.84;5057905;28;45515;-72
2022/08/05 09:56:34;;;;;;;;;2.67;2.00;;;;;51.36;12.89;101562.47;5058065;28;45446;-72
2022/08/05 09:59:04;;;;;;;;;3.00;3.00;;;;;50.40;13.40;101570.94;5057613;28;45426;-72
2022/08/05 10:01:32;;;;;;;;;2.67;2.67;;;;;46.49;15.27;101542.22;5057621;28;45514;-72
2022/08/05 10:04:07;;;;;;;;;2.33;2.33;;;;;45.34;17.31;101552.31;5056698;28;45495;-71
2022/08/05 10:06:33;;;;;;;;;6.00;5.00;;;;;43.63;18.17;101562.22;5057412;28;45566;-71
2022/08/05 10:09:13;;;;;;;;;3.00;3.00;;;;;44.96;17.88;101556.44;5057191;28;46979;-72
2022/08/05 10:11:39;;;;;;;;;2.67;2.33;;;;;47.55;15.12;101555.91;5057434;28;45468;-71
2022/08/05 10:14:22;;;;;;;;;4.00;4.00;;;;;48.53;14.71;101541.53;5057528;28;45469;-72
2022/08/05 10:16:48;;;;;;;;;3.00;2.00;;;;;49.48;13.38;101547.19;5057541;28;45568;-72
2022/08/05 10:19:15;;;;;;;;;5.00;5.00;;;;;47.87;13.96;101562.16;5057449;28;45833;-72
2022/08/05 10:21:41;;;;;;;;;3.67;3.33;;;;;48.95;13.50;101551.16;5057113;28;45958;-72
2022/08/05 10:24:11;;;;;;;;;4.33;4.33;;;;;49.70;13.05;101557.00;5057337;28;45472;-72
2022/08/05 10:26:39;;;;;;;;;3.00;2.67;;;;;49.55;13.88;101558.09;5058259;28;45517;-72
2022/08/05 10:29:06;;;;;;;;;5.33;3.67;;;;;50.05;12.87;101562.00;5076936;28;47440;-72
2022/08/05 10:31:32;;;;;;;;;2.67;2.67;;;;;50.40;12.81;101565.25;5077337;28;45560;-72
2022/08/05 10:33:57;;;;;;;;;3.00;3.00;;;;;49.72;12.95;101549.88;5077557;28;45408;-72
2022/08/05 10:36:23;;;;;;;;;5.67;4.67;;;;;47.51;14.97;101551.16;5077677;28;45556;-72
2022/08/05 10:38:54;;;;;;;;;4.00;2.67;;;;;44.57;16.85;101552.09;5077253;28;45691;-72
2022/08/05 10:41:38;;;;;;;;;3.33;3.00;;;;;45.03;15.78;101546.63;5077624;28;45466;-72
2022/08/05 10:44:09;;;;;;;;;1.33;1.33;;;;;46.65;14.71;101559.06;5077160;28;45343;-72
2022/08/05 10:46:46;;;;;;;;;3.67;3.33;;;;;47.49;14.08;101567.59;5077476;28;45462;-72
2022/08/05 10:49:12;;;;;;;;;5.00;5.00;;;;;47.84;14.58;101560.72;5076925;28;45588;-72
2022/08/05 10:52:01;;;;;;;;;3.00;3.00;;;;;47.98;14.66;101558.91;5076975;28;45418;-72
2022/08/05 10:54:48;;;;;;;;;3.33;3.33;;;;;45.33;16.73;101549.75;5058828;28;45468;-72
2022/08/05 10:57:25;;;;;;;;;3.67;3.67;;;;;43.22;17.98;101550.59;5077192;28;45454;-72
2022/08/05 11:00:15;;;;;;;;;3.33;3.00;;;;;43.06;18.34;101540.31;5076580;28;46003;-72
2022/08/05 11:03:13;;;;;;;;;4.33;3.00;;;;;42.85;18.84;101559.78;5058630;28;45835;-72
2022/08/05 11:05:39;;;;;;;;;3.00;3.00;;;;;43.66;17.50;101556.06;5014180;28;45441;-72
2022/08/05 11:08:09;;;;;;;;;3.00;3.00;;;;;44.07;17.39;101553.56;4998069;28;45700;-72
2022/08/05 11:10:37;;;;;;;;;4.00;3.00;;;;;44.38;16.82;101548.91;5013796;28;45473;-72
2022/08/05 11:13:04;;;;;;;;;2.00;2.00;;;;;44.12;17.37;101552.75;5013811;28;45487;-72
2022/08/05 11:15:38;;;;;;;;;4.67;4.67;;;;;42.88;18.04;101559.22;4997147;28;45481;-72
2022/08/05 11:18:26;;;;;;;;;3.33;3.33;;;;;41.44;19.02;101563.81;5014317;28;45542;-72
2022/08/05 11:20:52;;;;;;;;;3.33;2.67;;;;;40.39;19.63;101566.81;5013800;28;46218;-72
2022/08/05 11:23:40;;;;;;;;;4.33;3.00;;;;;40.35;20.23;101564.75;4997254;28;45917;-72
2022/08/05 11:26:18;;;;;;;;;3.00;3.00;;;;;40.37;19.87;101563.41;5014046;28;45557;-72
2022/08/05 11:28:48;;;;;;;;;4.00;4.00;;;;;39.76;20.55;101567.50;5013719;28;45411;-72
2022/08/05 11:31:14;;;;;;;;;4.67;3.67;;;;;39.11;20.80;101571.97;5013537;28;46440;-72